sensor_id;sensor_type;location;lat;lon;timestamp;temperature;humidity
7325;DHT22;3703;48.016;7.802;2022-09-21T00:02:35;12.10;1.00
7325;DHT22;3703;48.016;7.802;2022-09-21T00:05:23;12.00;1.00
7325;DHT22;3703;48.016;7.802;2022-09-21T00:08:13;11.00;1.00
7325;DHT22;3703;48.016;7.802;2022-09-21T00:11:01;11.70;1.00
7325;DHT22;3703;48.016;7.802;2022-09-21T00:13:52;11.70;1.00
7325;DHT22;3703;48.016;7.802;2022-09-21T00:16:41;11.90;1.00
7325;DHT22;3703;48.016;7.802;2022-09-21T00:19:29;11.50;1.00
7325;DHT22;3703;48.016;7.802;2022-09-21T00:22:16;11.50;1.00
7325;DHT22;3703;48.016;7.802;2022-09-21T00:25:05;11.70;1.00
7325;DHT22;3703;48.016;7.802;2022-09-21T00:27:53;11.70;1.00
7325;DHT22;3703;48.016;7.802;2022-09-21T00:30:42;11.50;1.00
7325;DHT22;3703;48.016;7.802;2022-09-21T00:33:30;11.40;1.00
7325;DHT22;3703;48.016;7.802;2022-09-21T00:36:22;11.50;1.00
7325;DHT22;3703;48.016;7.802;2022-09-21T00:39:11;11.40;1.00
7325;DHT22;3703;48.016;7.802;2022-09-21T00:41:58;11.60;1.00
7325;DHT22;3703;48.016;7.802;2022-09-21T00:44:46;11.50;1.00
7325;DHT22;3703;48.016;7.802;2022-09-21T00:47:39;11.20;1.00
7325;DHT22;3703;48.016;7.802;2022-09-21T00:50:27;11.30;1.00
7325;DHT22;3703;48.016;7.802;2022-09-21T00:53:15;11.20;1.00
7325;DHT22;3703;48.016;7.802;2022-09-21T00:56:04;11.10;1.00
7325;DHT22;3703;48.016;7.802;2022-09-21T00:58:53;10.90;1.00
7325;DHT22;3703;48.016;7.802;2022-09-21T01:01:41;11.00;1.00
7325;DHT22;3703;48.016;7.802;2022-09-21T01:04:30;10.70;1.00
7325;DHT22;3703;48.016;7.802;2022-09-21T01:07:20;10.80;1.00
7325;DHT22;3703;48.016;7.802;2022-09-21T01:10:12;10.70;1.00
7325;DHT22;3703;48.016;7.802;2022-09-21T01:13:06;10.80;1.00
7325;DHT22;3703;48.016;7.802;2022-09-21T01:16:05;10.80;1.00
7325;DHT22;3703;48.016;7.802;2022-09-21T01:19:00;10.90;1.00
7325;DHT22;3703;48.016;7.802;2022-09-21T01:22:00;10.70;1.00
7325;DHT22;3703;48.016;7.802;2022-09-21T01:25:04;10.70;2.80
7325;DHT22;3703;48.016;7.802;2022-09-21T01:28:17;10.70;1.20
7325;DHT22;3703;48.016;7.802;2022-09-21T01:31:15;11.20;1.00
7325;DHT22;3703;48.016;7.802;2022-09-21T01:34:12;10.90;1.00
7325;DHT22;3703;48.016;7.802;2022-09-21T01:37:08;10.90;1.00
7325;DHT22;3703;48.016;7.802;2022-09-21T01:40:01;10.90;1.00
7325;DHT22;3703;48.016;7.802;2022-09-21T01:42:53;10.90;1.00
7325;DHT22;3703;48.016;7.802;2022-09-21T01:45:45;10.90;1.00
7325;DHT22;3703;48.016;7.802;2022-09-21T01:48:39;10.80;1.00
7325;DHT22;3703;48.016;7.802;2022-09-21T01:51:28;10.80;1.00
7325;DHT22;3703;48.016;7.802;2022-09-21T01:54:19;10.70;7.00
7325;DHT22;3703;48.016;7.802;2022-09-21T01:57:14;10.80;5.20
7325;DHT22;3703;48.016;7.802;2022-09-21T02:00:06;10.50;10.10
7325;DHT22;3703;48.016;7.802;2022-09-21T02:02:56;10.60;3.60
7325;DHT22;3703;48.016;7.802;2022-09-21T02:05:47;10.70;1.00
7325;DHT22;3703;48.016;7.802;2022-09-21T02:08:35;10.70;1.00
7325;DHT22;3703;48.016;7.802;2022-09-21T02:11:24;10.90;4.90
7325;DHT22;3703;48.016;7.802;2022-09-21T02:14:15;10.90;1.00
7325;DHT22;3703;48.016;7.802;2022-09-21T02:17:14;10.70;1.00
7325;DHT22;3703;48.016;7.802;2022-09-21T02:20:18;10.60;1.00
7325;DHT22;3703;48.016;7.802;2022-09-21T02:23:13;10.50;1.00
7325;DHT22;3703;48.016;7.802;2022-09-21T02:26:11;10.50;14.10
7325;DHT22;3703;48.016;7.802;2022-09-21T02:29:06;10.20;18.30
7325;DHT22;3703;48.016;7.802;2022-09-21T02:32:01;10.30;11.70
7325;DHT22;3703;48.016;7.802;2022-09-21T02:34:58;10.30;8.50
7325;DHT22;3703;48.016;7.802;2022-09-21T02:37:51;10.60;12.90
7325;DHT22;3703;48.016;7.802;2022-09-21T02:40:49;10.50;14.30
7325;DHT22;3703;48.016;7.802;2022-09-21T02:43:42;10.40;9.00
7325;DHT22;3703;48.016;7.802;2022-09-21T02:46:36;10.40;10.70
7325;DHT22;3703;48.016;7.802;2022-09-21T02:49:27;9.50;16.40
7325;DHT22;3703;48.016;7.802;2022-09-21T02:52:17;9.70;19.60
7325;DHT22;3703;48.016;7.802;2022-09-21T02:55:06;10.10;16.50
7325;DHT22;3703;48.016;7.802;2022-09-21T02:57:55;10.10;14.70
7325;DHT22;3703;48.016;7.802;2022-09-21T03:00:43;10.20;21.30
7325;DHT22;3703;48.016;7.802;2022-09-21T03:03:31;9.70;20.30
7325;DHT22;3703;48.016;7.802;2022-09-21T03:06:19;9.90;19.40
7325;DHT22;3703;48.016;7.802;2022-09-21T03:14:43;9.40;42.50
7325;DHT22;3703;48.016;7.802;2022-09-21T03:17:31;9.30;32.10
7325;DHT22;3703;48.016;7.802;2022-09-21T03:20:19;9.70;46.40
7325;DHT22;3703;48.016;7.802;2022-09-21T03:23:06;9.50;26.00
7325;DHT22;3703;48.016;7.802;2022-09-21T03:25:54;9.40;25.20
7325;DHT22;3703;48.016;7.802;2022-09-21T03:31:31;9.50;17.30
7325;DHT22;3703;48.016;7.802;2022-09-21T03:37:08;9.60;8.40
7325;DHT22;3703;48.016;7.802;2022-09-21T03:48:22;9.70;8.30
7325;DHT22;3703;48.016;7.802;2022-09-21T03:51:09;9.60;14.90
7325;DHT22;3703;48.016;7.802;2022-09-21T03:53:57;9.00;23.90
7325;DHT22;3703;48.016;7.802;2022-09-21T04:05:12;9.20;26.10
7325;DHT22;3703;48.016;7.802;2022-09-21T04:08:01;9.30;25.30
7325;DHT22;3703;48.016;7.802;2022-09-21T04:13:36;9.10;26.50
7325;DHT22;3703;48.016;7.802;2022-09-21T04:16:24;9.00;28.90
7325;DHT22;3703;48.016;7.802;2022-09-21T04:19:12;9.10;25.00
7325;DHT22;3703;48.016;7.802;2022-09-21T04:22:01;8.90;19.60
7325;DHT22;3703;48.016;7.802;2022-09-21T04:24:49;8.50;21.30
7325;DHT22;3703;48.016;7.802;2022-09-21T04:27:36;9.60;23.00
7325;DHT22;3703;48.016;7.802;2022-09-21T04:30:24;9.00;14.90
7325;DHT22;3703;48.016;7.802;2022-09-21T04:33:12;8.90;26.80
7325;DHT22;3703;48.016;7.802;2022-09-21T04:36:01;8.80;24.60
7325;DHT22;3703;48.016;7.802;2022-09-21T04:38:50;8.70;24.70
7325;DHT22;3703;48.016;7.802;2022-09-21T04:41:37;9.40;20.50
7325;DHT22;3703;48.016;7.802;2022-09-21T04:44:25;9.50;19.40
7325;DHT22;3703;48.016;7.802;2022-09-21T04:47:13;9.00;23.80
7325;DHT22;3703;48.016;7.802;2022-09-21T04:50:00;8.70;25.30
7325;DHT22;3703;48.016;7.802;2022-09-21T04:52:48;8.80;27.50
7325;DHT22;3703;48.016;7.802;2022-09-21T04:55:37;8.90;27.20
7325;DHT22;3703;48.016;7.802;2022-09-21T04:58:25;8.80;28.60
7325;DHT22;3703;48.016;7.802;2022-09-21T05:01:12;9.00;22.60
7325;DHT22;3703;48.016;7.802;2022-09-21T05:04:00;8.70;34.80
7325;DHT22;3703;48.016;7.802;2022-09-21T05:06:48;9.50;32.80
7325;DHT22;3703;48.016;7.802;2022-09-21T05:09:36;8.80;33.30
7325;DHT22;3703;48.016;7.802;2022-09-21T05:12:42;8.40;26.30
7325;DHT22;3703;48.016;7.802;2022-09-21T05:15:30;9.00;27.60
7325;DHT22;3703;48.016;7.802;2022-09-21T05:18:17;8.50;35.50
7325;DHT22;3703;48.016;7.802;2022-09-21T05:21:05;8.60;27.20
7325;DHT22;3703;48.016;7.802;2022-09-21T05:23:54;8.80;28.80
7325;DHT22;3703;48.016;7.802;2022-09-21T05:26:42;8.70;27.60
7325;DHT22;3703;48.016;7.802;2022-09-21T05:29:32;8.50;38.90
7325;DHT22;3703;48.016;7.802;2022-09-21T05:32:23;9.10;39.40
7325;DHT22;3703;48.016;7.802;2022-09-21T05:35:21;8.60;33.50
7325;DHT22;3703;48.016;7.802;2022-09-21T05:38:16;8.90;32.20
7325;DHT22;3703;48.016;7.802;2022-09-21T05:41:06;8.70;34.50
7325;DHT22;3703;48.016;7.802;2022-09-21T05:43:55;8.50;28.40
7325;DHT22;3703;48.016;7.802;2022-09-21T05:46:49;8.40;33.90
7325;DHT22;3703;48.016;7.802;2022-09-21T05:49:48;8.50;36.20
7325;DHT22;3703;48.016;7.802;2022-09-21T05:52:43;8.80;35.00
7325;DHT22;3703;48.016;7.802;2022-09-21T05:55:48;8.60;33.30
7325;DHT22;3703;48.016;7.802;2022-09-21T05:58:45;8.70;29.50
7325;DHT22;3703;48.016;7.802;2022-09-21T06:01:49;8.70;26.70
7325;DHT22;3703;48.016;7.802;2022-09-21T06:04:43;8.80;28.20
7325;DHT22;3703;48.016;7.802;2022-09-21T06:07:31;8.80;30.80
7325;DHT22;3703;48.016;7.802;2022-09-21T06:10:18;8.90;28.00
7325;DHT22;3703;48.016;7.802;2022-09-21T06:13:06;8.80;28.30
7325;DHT22;3703;48.016;7.802;2022-09-21T06:15:53;8.70;37.40
7325;DHT22;3703;48.016;7.802;2022-09-21T06:18:42;8.80;41.30
7325;DHT22;3703;48.016;7.802;2022-09-21T06:21:30;8.20;41.60
7325;DHT22;3703;48.016;7.802;2022-09-21T06:24:18;9.00;33.60
7325;DHT22;3703;48.016;7.802;2022-09-21T06:27:05;9.00;35.70
7325;DHT22;3703;48.016;7.802;2022-09-21T06:29:53;9.00;35.40
7325;DHT22;3703;48.016;7.802;2022-09-21T06:32:40;9.10;32.10
7325;DHT22;3703;48.016;7.802;2022-09-21T06:35:31;9.10;30.00
7325;DHT22;3703;48.016;7.802;2022-09-21T06:38:20;9.20;31.10
7325;DHT22;3703;48.016;7.802;2022-09-21T06:41:08;9.20;33.30
7325;DHT22;3703;48.016;7.802;2022-09-21T06:43:55;9.20;35.30
7325;DHT22;3703;48.016;7.802;2022-09-21T06:46:43;9.10;41.00
7325;DHT22;3703;48.016;7.802;2022-09-21T06:49:30;9.20;42.20
7325;DHT22;3703;48.016;7.802;2022-09-21T06:52:19;9.30;39.40
7325;DHT22;3703;48.016;7.802;2022-09-21T06:55:08;9.40;34.40
7325;DHT22;3703;48.016;7.802;2022-09-21T06:57:59;9.50;29.80
7325;DHT22;3703;48.016;7.802;2022-09-21T07:00:47;9.60;29.30
7325;DHT22;3703;48.016;7.802;2022-09-21T07:03:36;9.60;31.40
7325;DHT22;3703;48.016;7.802;2022-09-21T07:06:24;9.70;27.60
7325;DHT22;3703;48.016;7.802;2022-09-21T07:09:13;9.70;32.80
7325;DHT22;3703;48.016;7.802;2022-09-21T07:12:01;9.80;28.90
7325;DHT22;3703;48.016;7.802;2022-09-21T07:14:49;10.00;27.90
7325;DHT22;3703;48.016;7.802;2022-09-21T07:17:37;10.10;26.40
7325;DHT22;3703;48.016;7.802;2022-09-21T07:20:25;10.20;20.70
7325;DHT22;3703;48.016;7.802;2022-09-21T07:23:14;10.30;21.10
7325;DHT22;3703;48.016;7.802;2022-09-21T07:26:06;10.20;22.50
7325;DHT22;3703;48.016;7.802;2022-09-21T07:28:55;10.40;19.80
7325;DHT22;3703;48.016;7.802;2022-09-21T07:31:42;10.40;11.60
7325;DHT22;3703;48.016;7.802;2022-09-21T07:34:34;10.40;21.10
7325;DHT22;3703;48.016;7.802;2022-09-21T07:37:22;10.50;12.40
7325;DHT22;3703;48.016;7.802;2022-09-21T07:40:10;10.70;3.40
7325;DHT22;3703;48.016;7.802;2022-09-21T07:42:59;10.80;5.40
7325;DHT22;3703;48.016;7.802;2022-09-21T07:45:52;10.90;1.00
7325;DHT22;3703;48.016;7.802;2022-09-21T07:48:40;11.10;1.00
7325;DHT22;3703;48.016;7.802;2022-09-21T07:51:28;11.30;1.00
7325;DHT22;3703;48.016;7.802;2022-09-21T07:54:16;11.30;1.00
7325;DHT22;3703;48.016;7.802;2022-09-21T07:57:05;11.30;1.00
7325;DHT22;3703;48.016;7.802;2022-09-21T08:00:12;11.50;3.90
7325;DHT22;3703;48.016;7.802;2022-09-21T08:03:00;11.60;2.70
7325;DHT22;3703;48.016;7.802;2022-09-21T08:05:48;11.80;4.60
7325;DHT22;3703;48.016;7.802;2022-09-21T08:08:36;11.90;3.90
7325;DHT22;3703;48.016;7.802;2022-09-21T08:11:25;12.00;2.30
7325;DHT22;3703;48.016;7.802;2022-09-21T08:14:15;12.30;1.00
7325;DHT22;3703;48.016;7.802;2022-09-21T08:17:06;12.40;1.00
7325;DHT22;3703;48.016;7.802;2022-09-21T08:19:54;12.70;1.00
7325;DHT22;3703;48.016;7.802;2022-09-21T08:22:41;12.80;1.00
7325;DHT22;3703;48.016;7.802;2022-09-21T08:25:29;13.00;1.00
7325;DHT22;3703;48.016;7.802;2022-09-21T08:28:17;13.30;1.00
7325;DHT22;3703;48.016;7.802;2022-09-21T08:31:06;13.40;1.00
7325;DHT22;3703;48.016;7.802;2022-09-21T08:33:56;13.60;1.00
7325;DHT22;3703;48.016;7.802;2022-09-21T08:36:44;13.80;1.00
7325;DHT22;3703;48.016;7.802;2022-09-21T08:39:31;14.10;1.00
7325;DHT22;3703;48.016;7.802;2022-09-21T08:42:38;14.10;1.00
7325;DHT22;3703;48.016;7.802;2022-09-21T08:45:32;14.30;1.00
7325;DHT22;3703;48.016;7.802;2022-09-21T08:48:23;14.60;1.00
7325;DHT22;3703;48.016;7.802;2022-09-21T08:51:17;14.70;1.00
7325;DHT22;3703;48.016;7.802;2022-09-21T08:54:14;14.80;1.00
7325;DHT22;3703;48.016;7.802;2022-09-21T08:57:09;15.00;1.00
7325;DHT22;3703;48.016;7.802;2022-09-21T08:59:59;15.20;1.00
7325;DHT22;3703;48.016;7.802;2022-09-21T09:06:33;15.60;1.00
7325;DHT22;3703;48.016;7.802;2022-09-21T09:09:43;15.90;1.00
7325;DHT22;3703;48.016;7.802;2022-09-21T09:12:50;16.20;1.00
7325;DHT22;3703;48.016;7.802;2022-09-21T09:15:52;16.30;1.00
7325;DHT22;3703;48.016;7.802;2022-09-21T09:18:50;16.40;1.00
7325;DHT22;3703;48.016;7.802;2022-09-21T09:21:41;16.60;1.00
7325;DHT22;3703;48.016;7.802;2022-09-21T09:24:34;16.80;1.00
7325;DHT22;3703;48.016;7.802;2022-09-21T09:27:29;17.00;1.00
7325;DHT22;3703;48.016;7.802;2022-09-21T09:30:21;17.20;99.90
7325;DHT22;3703;48.016;7.802;2022-09-21T09:33:16;17.30;99.90
7325;DHT22;3703;48.016;7.802;2022-09-21T09:36:11;17.60;99.90
7325;DHT22;3703;48.016;7.802;2022-09-21T09:39:03;17.90;99.90
7325;DHT22;3703;48.016;7.802;2022-09-21T09:42:20;18.10;1.00
7325;DHT22;3703;48.016;7.802;2022-09-21T09:45:27;18.40;99.90
7325;DHT22;3703;48.016;7.802;2022-09-21T09:48:42;18.60;99.90
7325;DHT22;3703;48.016;7.802;2022-09-21T09:51:37;19.00;1.00
7325;DHT22;3703;48.016;7.802;2022-09-21T09:54:28;19.20;1.00
7325;DHT22;3703;48.016;7.802;2022-09-21T09:57:23;19.40;1.00
7325;DHT22;3703;48.016;7.802;2022-09-21T10:00:15;19.80;99.90
7325;DHT22;3703;48.016;7.802;2022-09-21T10:03:15;20.00;1.00
7325;DHT22;3703;48.016;7.802;2022-09-21T10:06:04;20.20;99.90
7325;DHT22;3703;48.016;7.802;2022-09-21T10:08:52;20.40;99.90
7325;DHT22;3703;48.016;7.802;2022-09-21T10:11:41;20.60;1.00
7325;DHT22;3703;48.016;7.802;2022-09-21T10:14:33;20.80;1.00
7325;DHT22;3703;48.016;7.802;2022-09-21T10:17:23;21.00;99.90
7325;DHT22;3703;48.016;7.802;2022-09-21T10:20:15;21.30;99.90
7325;DHT22;3703;48.016;7.802;2022-09-21T10:23:05;21.50;65.70
7325;DHT22;3703;48.016;7.802;2022-09-21T10:25:58;21.70;1.00
7325;DHT22;3703;48.016;7.802;2022-09-21T10:28:57;21.90;23.10
7325;DHT22;3703;48.016;7.802;2022-09-21T10:31:56;22.00;1.00
7325;DHT22;3703;48.016;7.802;2022-09-21T10:35:13;22.20;1.00
7325;DHT22;3703;48.016;7.802;2022-09-21T10:38:14;22.60;99.90
7325;DHT22;3703;48.016;7.802;2022-09-21T10:41:03;23.00;1.00
7325;DHT22;3703;48.016;7.802;2022-09-21T10:43:51;23.00;99.90
7325;DHT22;3703;48.016;7.802;2022-09-21T10:46:41;23.40;87.90
7325;DHT22;3703;48.016;7.802;2022-09-21T10:49:28;23.60;1.00
7325;DHT22;3703;48.016;7.802;2022-09-21T10:52:19;23.30;1.00
7325;DHT22;3703;48.016;7.802;2022-09-21T10:55:16;22.70;1.00
7325;DHT22;3703;48.016;7.802;2022-09-21T10:58:08;22.60;1.00
7325;DHT22;3703;48.016;7.802;2022-09-21T11:01:09;23.10;1.00
7325;DHT22;3703;48.016;7.802;2022-09-21T11:04:03;23.10;99.90
7325;DHT22;3703;48.016;7.802;2022-09-21T11:06:57;23.40;1.00
7325;DHT22;3703;48.016;7.802;2022-09-21T11:09:56;23.60;1.00
7325;DHT22;3703;48.016;7.802;2022-09-21T11:12:52;23.80;99.90
7325;DHT22;3703;48.016;7.802;2022-09-21T11:15:50;23.80;99.90
7325;DHT22;3703;48.016;7.802;2022-09-21T11:21:56;23.70;99.90
7325;DHT22;3703;48.016;7.802;2022-09-21T11:24:50;22.80;99.90
7325;DHT22;3703;48.016;7.802;2022-09-21T11:27:43;22.40;99.90
7325;DHT22;3703;48.016;7.802;2022-09-21T11:30:50;22.80;99.90
7325;DHT22;3703;48.016;7.802;2022-09-21T11:33:58;23.40;99.90
7325;DHT22;3703;48.016;7.802;2022-09-21T11:37:00;23.70;39.20
7325;DHT22;3703;48.016;7.802;2022-09-21T11:40:13;24.30;1.00
7325;DHT22;3703;48.016;7.802;2022-09-21T11:43:22;25.00;1.00
7325;DHT22;3703;48.016;7.802;2022-09-21T11:46:24;25.40;1.00
7325;DHT22;3703;48.016;7.802;2022-09-21T11:49:32;24.20;1.00
7325;DHT22;3703;48.016;7.802;2022-09-21T11:52:38;24.50;1.00
7325;DHT22;3703;48.016;7.802;2022-09-21T11:55:56;24.80;1.00
7325;DHT22;3703;48.016;7.802;2022-09-21T12:06:16;24.60;1.00
7325;DHT22;3703;48.016;7.802;2022-09-21T12:09:31;25.20;1.00
7325;DHT22;3703;48.016;7.802;2022-09-21T12:12:35;25.40;1.00
7325;DHT22;3703;48.016;7.802;2022-09-21T12:15:31;25.80;1.00
7325;DHT22;3703;48.016;7.802;2022-09-21T12:18:30;25.90;99.90
7325;DHT22;3703;48.016;7.802;2022-09-21T12:21:25;26.50;1.00
7325;DHT22;3703;48.016;7.802;2022-09-21T12:24:17;26.50;99.90
7325;DHT22;3703;48.016;7.802;2022-09-21T12:27:20;26.60;99.90
7325;DHT22;3703;48.016;7.802;2022-09-21T12:30:14;26.90;99.90
7325;DHT22;3703;48.016;7.802;2022-09-21T12:33:08;27.30;99.90
7325;DHT22;3703;48.016;7.802;2022-09-21T12:36:06;27.20;99.90
7325;DHT22;3703;48.016;7.802;2022-09-21T12:39:04;27.20;99.90
7325;DHT22;3703;48.016;7.802;2022-09-21T12:41:58;27.50;99.90
7325;DHT22;3703;48.016;7.802;2022-09-21T12:44:51;27.70;99.90
7325;DHT22;3703;48.016;7.802;2022-09-21T12:47:55;27.60;99.90
7325;DHT22;3703;48.016;7.802;2022-09-21T12:50:49;27.90;99.90
7325;DHT22;3703;48.016;7.802;2022-09-21T12:53:44;27.90;99.90
7325;DHT22;3703;48.016;7.802;2022-09-21T12:56:39;28.00;99.90
7325;DHT22;3703;48.016;7.802;2022-09-21T12:59:35;28.10;99.90
7325;DHT22;3703;48.016;7.802;2022-09-21T13:02:32;27.80;99.90
7325;DHT22;3703;48.016;7.802;2022-09-21T13:05:32;27.30;99.90
7325;DHT22;3703;48.016;7.802;2022-09-21T13:08:25;27.30;99.90
7325;DHT22;3703;48.016;7.802;2022-09-21T13:11:15;26.90;99.90
7325;DHT22;3703;48.016;7.802;2022-09-21T13:14:11;27.50;99.90
7325;DHT22;3703;48.016;7.802;2022-09-21T13:17:01;27.70;99.90
7325;DHT22;3703;48.016;7.802;2022-09-21T13:20:02;27.50;99.90
7325;DHT22;3703;48.016;7.802;2022-09-21T13:22:57;27.30;99.90
7325;DHT22;3703;48.016;7.802;2022-09-21T13:25:47;27.00;99.90
7325;DHT22;3703;48.016;7.802;2022-09-21T13:28:59;27.10;99.90
7325;DHT22;3703;48.016;7.802;2022-09-21T13:31:56;27.20;99.90
7325;DHT22;3703;48.016;7.802;2022-09-21T13:34:44;27.20;99.90
7325;DHT22;3703;48.016;7.802;2022-09-21T13:37:36;26.60;99.90
7325;DHT22;3703;48.016;7.802;2022-09-21T13:40:32;26.00;99.90
7325;DHT22;3703;48.016;7.802;2022-09-21T13:43:23;25.40;99.90
7325;DHT22;3703;48.016;7.802;2022-09-21T13:46:49;25.60;99.90
7325;DHT22;3703;48.016;7.802;2022-09-21T13:49:44;26.30;99.90
7325;DHT22;3703;48.016;7.802;2022-09-21T13:52:41;26.10;99.90
7325;DHT22;3703;48.016;7.802;2022-09-21T13:55:32;25.40;99.90
7325;DHT22;3703;48.016;7.802;2022-09-21T13:58:25;25.10;99.90
7325;DHT22;3703;48.016;7.802;2022-09-21T14:01:17;24.90;99.90
7325;DHT22;3703;48.016;7.802;2022-09-21T14:04:17;24.80;99.90
7325;DHT22;3703;48.016;7.802;2022-09-21T14:07:08;24.10;99.90
7325;DHT22;3703;48.016;7.802;2022-09-21T14:09:59;23.70;99.90
7325;DHT22;3703;48.016;7.802;2022-09-21T14:12:49;23.80;99.90
7325;DHT22;3703;48.016;7.802;2022-09-21T14:15:38;23.80;99.90
7325;DHT22;3703;48.016;7.802;2022-09-21T14:18:44;23.80;99.90
7325;DHT22;3703;48.016;7.802;2022-09-21T14:21:32;23.50;99.90
7325;DHT22;3703;48.016;7.802;2022-09-21T14:24:21;23.70;99.90
7325;DHT22;3703;48.016;7.802;2022-09-21T14:27:25;24.10;99.90
7325;DHT22;3703;48.016;7.802;2022-09-21T14:30:17;24.10;99.90
7325;DHT22;3703;48.016;7.802;2022-09-21T14:33:16;23.60;99.90
7325;DHT22;3703;48.016;7.802;2022-09-21T14:36:10;23.70;99.90
7325;DHT22;3703;48.016;7.802;2022-09-21T14:39:04;23.80;99.90
7325;DHT22;3703;48.016;7.802;2022-09-21T14:41:58;23.70;99.90
7325;DHT22;3703;48.016;7.802;2022-09-21T14:44:48;23.90;99.90
7325;DHT22;3703;48.016;7.802;2022-09-21T14:48:00;23.90;99.90
7325;DHT22;3703;48.016;7.802;2022-09-21T14:50:57;23.60;99.90
7325;DHT22;3703;48.016;7.802;2022-09-21T14:54:06;23.60;99.90
7325;DHT22;3703;48.016;7.802;2022-09-21T14:57:19;23.50;99.90
7325;DHT22;3703;48.016;7.802;2022-09-21T15:00:21;23.30;99.90
7325;DHT22;3703;48.016;7.802;2022-09-21T15:03:38;23.30;99.90
7325;DHT22;3703;48.016;7.802;2022-09-21T15:06:34;23.20;99.90
7325;DHT22;3703;48.016;7.802;2022-09-21T15:09:59;23.00;99.90
7325;DHT22;3703;48.016;7.802;2022-09-21T15:13:19;22.70;99.90
7325;DHT22;3703;48.016;7.802;2022-09-21T15:16:33;22.40;99.90
7325;DHT22;3703;48.016;7.802;2022-09-21T15:19:26;22.60;99.90
7325;DHT22;3703;48.016;7.802;2022-09-21T15:22:16;22.60;99.90
7325;DHT22;3703;48.016;7.802;2022-09-21T15:25:11;22.40;99.90
7325;DHT22;3703;48.016;7.802;2022-09-21T15:28:00;22.40;99.90
7325;DHT22;3703;48.016;7.802;2022-09-21T15:30:50;22.30;99.90
7325;DHT22;3703;48.016;7.802;2022-09-21T15:33:44;22.30;99.90
7325;DHT22;3703;48.016;7.802;2022-09-21T15:36:36;22.30;99.90
7325;DHT22;3703;48.016;7.802;2022-09-21T15:39:26;22.30;99.90
7325;DHT22;3703;48.016;7.802;2022-09-21T15:42:19;22.20;99.90
7325;DHT22;3703;48.016;7.802;2022-09-21T15:45:15;22.00;99.90
7325;DHT22;3703;48.016;7.802;2022-09-21T15:48:06;21.70;99.90
7325;DHT22;3703;48.016;7.802;2022-09-21T15:51:01;21.50;99.90
7325;DHT22;3703;48.016;7.802;2022-09-21T15:54:06;21.30;99.90
7325;DHT22;3703;48.016;7.802;2022-09-21T15:56:54;21.30;99.90
7325;DHT22;3703;48.016;7.802;2022-09-21T15:59:43;21.00;99.90
7325;DHT22;3703;48.016;7.802;2022-09-21T16:02:35;21.00;99.90
7325;DHT22;3703;48.016;7.802;2022-09-21T16:05:25;20.90;99.90
7325;DHT22;3703;48.016;7.802;2022-09-21T16:08:20;20.70;99.90
7325;DHT22;3703;48.016;7.802;2022-09-21T16:11:16;20.40;99.90
7325;DHT22;3703;48.016;7.802;2022-09-21T16:14:10;20.30;99.90
7325;DHT22;3703;48.016;7.802;2022-09-21T16:17:22;20.10;99.90
7325;DHT22;3703;48.016;7.802;2022-09-21T16:20:18;20.10;99.90
7325;DHT22;3703;48.016;7.802;2022-09-21T16:23:14;20.00;99.90
7325;DHT22;3703;48.016;7.802;2022-09-21T16:26:03;19.60;99.90
7325;DHT22;3703;48.016;7.802;2022-09-21T16:29:16;19.50;99.90
7325;DHT22;3703;48.016;7.802;2022-09-21T16:32:20;19.50;99.90
7325;DHT22;3703;48.016;7.802;2022-09-21T16:35:23;19.50;99.90
7325;DHT22;3703;48.016;7.802;2022-09-21T16:38:15;19.50;99.90
7325;DHT22;3703;48.016;7.802;2022-09-21T16:41:06;19.30;99.90
7325;DHT22;3703;48.016;7.802;2022-09-21T16:43:55;19.30;99.90
7325;DHT22;3703;48.016;7.802;2022-09-21T16:46:43;19.20;1.00
7325;DHT22;3703;48.016;7.802;2022-09-21T16:49:32;19.10;1.00
7325;DHT22;3703;48.016;7.802;2022-09-21T16:52:21;19.00;1.00
7325;DHT22;3703;48.016;7.802;2022-09-21T16:55:11;19.00;1.00
7325;DHT22;3703;48.016;7.802;2022-09-21T16:58:00;19.20;1.00
7325;DHT22;3703;48.016;7.802;2022-09-21T17:00:51;19.20;1.00
7325;DHT22;3703;48.016;7.802;2022-09-21T17:03:39;19.00;1.00
7325;DHT22;3703;48.016;7.802;2022-09-21T17:06:27;18.80;1.00
7325;DHT22;3703;48.016;7.802;2022-09-21T17:09:24;18.50;1.00
7325;DHT22;3703;48.016;7.802;2022-09-21T17:12:16;18.40;1.00
7325;DHT22;3703;48.016;7.802;2022-09-21T17:15:05;18.30;1.00
7325;DHT22;3703;48.016;7.802;2022-09-21T17:17:54;18.20;1.00
7325;DHT22;3703;48.016;7.802;2022-09-21T17:20:44;18.00;1.00
7325;DHT22;3703;48.016;7.802;2022-09-21T17:23:32;17.90;1.00
7325;DHT22;3703;48.016;7.802;2022-09-21T17:26:21;17.90;1.00
7325;DHT22;3703;48.016;7.802;2022-09-21T17:29:17;17.80;1.00
7325;DHT22;3703;48.016;7.802;2022-09-21T17:32:09;17.70;34.60
7325;DHT22;3703;48.016;7.802;2022-09-21T17:34:59;17.60;99.90
7325;DHT22;3703;48.016;7.802;2022-09-21T17:38:04;17.30;99.90
7325;DHT22;3703;48.016;7.802;2022-09-21T17:40:53;17.30;99.90
7325;DHT22;3703;48.016;7.802;2022-09-21T17:43:44;17.20;99.90
7325;DHT22;3703;48.016;7.802;2022-09-21T17:46:41;17.20;99.90
7325;DHT22;3703;48.016;7.802;2022-09-21T17:49:33;17.10;1.00
7325;DHT22;3703;48.016;7.802;2022-09-21T17:52:22;17.10;1.00
7325;DHT22;3703;48.016;7.802;2022-09-21T17:55:46;16.90;1.00
7325;DHT22;3703;48.016;7.802;2022-09-21T17:58:43;16.70;1.00
7325;DHT22;3703;48.016;7.802;2022-09-21T18:01:35;16.70;99.90
7325;DHT22;3703;48.016;7.802;2022-09-21T18:04:26;16.60;99.90
7325;DHT22;3703;48.016;7.802;2022-09-21T18:07:16;16.50;1.00
7325;DHT22;3703;48.016;7.802;2022-09-21T18:10:05;16.40;1.00
7325;DHT22;3703;48.016;7.802;2022-09-21T18:13:15;16.40;99.90
7325;DHT22;3703;48.016;7.802;2022-09-21T18:19:31;16.20;99.90
7325;DHT22;3703;48.016;7.802;2022-09-21T18:22:32;16.20;1.00
7325;DHT22;3703;48.016;7.802;2022-09-21T18:25:27;16.00;1.00
7325;DHT22;3703;48.016;7.802;2022-09-21T18:28:20;16.00;9.50
7325;DHT22;3703;48.016;7.802;2022-09-21T18:31:30;15.90;99.90
7325;DHT22;3703;48.016;7.802;2022-09-21T18:34:43;15.80;99.90
7325;DHT22;3703;48.016;7.802;2022-09-21T18:37:45;15.80;99.90
7325;DHT22;3703;48.016;7.802;2022-09-21T18:40:51;15.80;1.00
7325;DHT22;3703;48.016;7.802;2022-09-21T18:43:56;15.60;99.90
7325;DHT22;3703;48.016;7.802;2022-09-21T18:46:58;15.60;1.00
7325;DHT22;3703;48.016;7.802;2022-09-21T18:49:57;15.50;99.90
7325;DHT22;3703;48.016;7.802;2022-09-21T18:52:59;15.30;1.00
7325;DHT22;3703;48.016;7.802;2022-09-21T18:55:49;15.10;99.90
7325;DHT22;3703;48.016;7.802;2022-09-21T18:58:38;15.00;99.90
7325;DHT22;3703;48.016;7.802;2022-09-21T19:01:27;15.00;32.80
7325;DHT22;3703;48.016;7.802;2022-09-21T19:04:19;15.10;99.90
7325;DHT22;3703;48.016;7.802;2022-09-21T19:07:14;15.10;1.00
7325;DHT22;3703;48.016;7.802;2022-09-21T19:10:13;15.10;99.90
7325;DHT22;3703;48.016;7.802;2022-09-21T19:13:24;15.10;1.00
7325;DHT22;3703;48.016;7.802;2022-09-21T19:16:25;14.90;4.10
7325;DHT22;3703;48.016;7.802;2022-09-21T19:19:28;14.70;1.00
7325;DHT22;3703;48.016;7.802;2022-09-21T19:22:25;14.70;1.00
7325;DHT22;3703;48.016;7.802;2022-09-21T19:25:24;14.60;1.00
7325;DHT22;3703;48.016;7.802;2022-09-21T19:28:33;14.30;99.90
7325;DHT22;3703;48.016;7.802;2022-09-21T19:31:45;14.70;99.90
7325;DHT22;3703;48.016;7.802;2022-09-21T19:34:34;14.00;99.90
7325;DHT22;3703;48.016;7.802;2022-09-21T19:37:23;14.00;99.90
7325;DHT22;3703;48.016;7.802;2022-09-21T19:40:11;13.90;99.90
7325;DHT22;3703;48.016;7.802;2022-09-21T19:43:19;13.60;99.90
7325;DHT22;3703;48.016;7.802;2022-09-21T19:46:19;13.80;99.90
7325;DHT22;3703;48.016;7.802;2022-09-21T19:49:14;14.20;99.90
7325;DHT22;3703;48.016;7.802;2022-09-21T19:52:04;13.80;99.90
7325;DHT22;3703;48.016;7.802;2022-09-21T19:54:54;13.70;99.90
7325;DHT22;3703;48.016;7.802;2022-09-21T19:58:00;13.70;99.90